createdAt,value
2019-02-07T00:00:15.076Z,10.43
2019-02-07T00:02:43.494Z,10.87
2019-02-07T00:05:12.028Z,8.60
2019-02-07T00:07:40.512Z,10.03
2019-02-07T00:10:11.940Z,8.80
2019-02-07T00:12:40.415Z,9.13
2019-02-07T00:15:10.807Z,8.90
2019-02-07T00:17:39.247Z,8.53
2019-02-07T00:20:13.807Z,8.43
2019-02-07T00:22:42.313Z,8.73
2019-02-07T00:25:11.206Z,10.50
2019-02-07T00:27:39.640Z,10.87
2019-02-07T00:30:19.541Z,10.87
2019-02-07T00:32:48.249Z,9.23
2019-02-07T00:35:16.789Z,8.83
2019-02-07T00:37:45.348Z,7.83
2019-02-07T00:40:16.339Z,9.20
2019-02-07T00:42:45.135Z,10.43
2019-02-07T00:45:16.463Z,10.50
2019-02-07T00:47:45.012Z,9.30
2019-02-07T00:50:15.110Z,9.70
2019-02-07T00:52:43.809Z,10.40
2019-02-07T00:55:17.267Z,9.73
2019-02-07T00:57:46.210Z,8.50
2019-02-07T01:00:28.837Z,9.90
2019-02-07T01:02:57.329Z,8.77
2019-02-07T01:05:25.878Z,9.13
2019-02-07T01:07:54.395Z,7.57
2019-02-07T01:10:28.176Z,10.47
2019-02-07T01:12:56.845Z,10.27
2019-02-07T01:15:26.995Z,7.23
2019-02-07T01:17:55.581Z,8.20
2019-02-07T01:20:24.092Z,8.73
2019-02-07T01:22:52.861Z,8.90
2019-02-07T01:25:23.369Z,8.70
2019-02-07T01:27:52.151Z,8.50
2019-02-07T01:30:25.157Z,9.00
2019-02-07T01:32:53.926Z,9.47
2019-02-07T01:35:22.399Z,7.87
2019-02-07T01:37:51.307Z,8.50
2019-02-07T01:40:20.709Z,8.73
2019-02-07T01:42:49.198Z,9.73
2019-02-07T01:45:20.446Z,7.97
2019-02-07T01:47:49.803Z,9.83
2019-02-07T01:50:23.510Z,8.87
2019-02-07T01:52:52.542Z,11.43
2019-02-07T01:55:21.402Z,9.63
2019-02-07T01:57:49.849Z,9.20
2019-02-07T02:00:20.273Z,11.20
2019-02-07T02:02:48.839Z,9.73
2019-02-07T02:05:21.004Z,10.27
2019-02-07T02:07:50.612Z,9.23
2019-02-07T02:10:24.676Z,8.83
2019-02-07T02:12:53.185Z,9.90
2019-02-07T02:15:24.977Z,10.30
2019-02-07T02:17:52.840Z,8.20
2019-02-07T02:20:25.473Z,9.43
2019-02-07T02:22:55.274Z,8.63
2019-02-07T02:25:23.836Z,9.53
2019-02-07T02:27:52.411Z,9.07
2019-02-07T02:30:23.685Z,9.90
2019-02-07T02:32:52.893Z,8.60
2019-02-07T02:35:21.825Z,8.43
2019-02-07T02:37:50.401Z,9.13
2019-02-07T02:40:19.343Z,8.87
2019-02-07T02:42:48.029Z,10.00
2019-02-07T02:45:21.434Z,8.80
2019-02-07T02:47:50.590Z,9.20
2019-02-07T02:50:20.316Z,8.90
2019-02-07T02:52:49.203Z,9.33
2019-02-07T02:55:25.184Z,9.17
2019-02-07T02:57:53.684Z,9.20
2019-02-07T03:00:39.878Z,9.60
2019-02-07T03:03:24.751Z,9.43
2019-02-07T03:06:12.698Z,8.97
2019-02-07T03:08:43.081Z,8.80
2019-02-07T03:11:29.513Z,9.73
2019-02-07T03:14:02.236Z,11.10
2019-02-07T03:16:35.074Z,10.30
2019-02-07T03:19:08.244Z,10.33
2019-02-07T03:21:38.382Z,8.67
2019-02-07T03:24:08.479Z,8.43
2019-02-07T03:26:54.673Z,8.70
2019-02-07T03:29:33.719Z,9.37
2019-02-07T03:32:06.680Z,9.43
2019-02-07T03:34:51.848Z,9.47
2019-02-07T03:37:40.265Z,11.00
2019-02-07T03:40:28.968Z,9.87
2019-02-07T03:43:11.057Z,9.10
2019-02-07T03:45:41.149Z,12.17
2019-02-07T03:48:22.773Z,11.30
2019-02-07T03:51:11.065Z,9.47
2019-02-07T03:53:44.217Z,10.07
2019-02-07T03:56:30.448Z,8.83
2019-02-07T03:59:16.836Z,8.80
2019-02-07T04:01:49.422Z,10.47
2019-02-07T04:04:37.776Z,11.70
2019-02-07T04:07:10.410Z,10.23
2019-02-07T04:09:43.281Z,9.47
2019-02-07T04:12:28.341Z,11.47
2019-02-07T04:14:58.404Z,9.47
2019-02-07T04:17:31.513Z,9.20
2019-02-07T04:20:17.888Z,10.47
2019-02-07T04:22:47.958Z,9.00
2019-02-07T04:25:23.856Z,10.23
2019-02-07T04:27:59.699Z,10.50
2019-02-07T04:30:29.772Z,9.53
2019-02-07T04:33:16.753Z,8.87
2019-02-07T04:35:55.786Z,10.77
2019-02-07T04:38:25.863Z,12.00
2019-02-07T04:40:55.915Z,9.77
2019-02-07T04:43:42.306Z,10.03
2019-02-07T04:46:26.585Z,9.87
2019-02-07T04:48:55.903Z,10.07
2019-02-07T04:51:25.972Z,11.90
2019-02-07T04:54:07.661Z,9.43
2019-02-07T04:56:52.971Z,12.03
2019-02-07T04:59:39.230Z,13.60
2019-02-07T05:02:27.200Z,11.50
2019-02-07T05:05:06.475Z,11.53
2019-02-07T05:07:48.427Z,12.43
2019-02-07T05:10:18.747Z,11.53
2019-02-07T05:12:51.683Z,14.73
2019-02-07T05:15:24.494Z,12.07
2019-02-07T05:18:10.467Z,13.83
2019-02-07T05:20:40.896Z,12.00
2019-02-07T05:23:28.917Z,13.23
2019-02-07T05:28:50.671Z,17.23
2019-02-07T05:31:32.891Z,11.60
2019-02-07T05:34:19.246Z,13.57
2019-02-07T05:37:01.521Z,13.33
2019-02-07T05:39:47.822Z,11.90
2019-02-07T05:42:17.891Z,12.23
2019-02-07T05:45:06.363Z,14.70
2019-02-07T05:47:36.444Z,13.53
2019-02-07T05:50:15.349Z,13.43
2019-02-07T05:52:48.369Z,18.20
2019-02-07T05:55:18.458Z,15.93
2019-02-07T05:57:48.515Z,15.17
2019-02-07T06:00:33.447Z,17.00
2019-02-07T06:03:19.902Z,12.83
2019-02-07T06:05:52.952Z,15.17
2019-02-07T06:08:31.520Z,17.33
2019-02-07T06:11:04.303Z,18.30
2019-02-07T06:13:50.088Z,18.93
2019-02-07T06:16:20.168Z,13.87
2019-02-07T06:19:02.377Z,22.07
2019-02-07T06:21:35.599Z,16.13
2019-02-07T06:24:05.820Z,13.10
2019-02-07T06:26:53.976Z,16.10
2019-02-07T06:29:24.114Z,15.47
2019-02-07T06:31:54.550Z,13.10
2019-02-07T06:34:36.511Z,12.47
2019-02-07T06:37:09.473Z,14.20
2019-02-07T06:39:56.141Z,12.13
2019-02-07T06:42:26.225Z,14.10
2019-02-07T06:44:59.250Z,13.77
2019-02-07T06:47:41.669Z,13.97
2019-02-07T06:50:11.998Z,14.27
2019-02-07T06:52:42.079Z,16.00
2019-02-07T06:55:20.841Z,15.00
2019-02-07T06:58:02.776Z,11.93
2019-02-07T07:00:45.170Z,15.78
2019-02-07T07:03:30.468Z,15.83
2019-02-07T07:06:06.528Z,13.40
2019-02-07T07:08:36.955Z,13.57
2019-02-07T07:11:07.041Z,13.20
2019-02-07T07:13:37.129Z,15.27
2019-02-07T07:16:22.905Z,13.73
2019-02-07T07:19:10.062Z,12.70
2019-02-07T07:21:40.151Z,13.60
2019-02-07T07:24:26.879Z,13.40
2019-02-07T07:27:00.074Z,10.47
2019-02-07T07:29:36.291Z,12.17
2019-02-07T07:32:19.368Z,11.20
2019-02-07T07:35:05.850Z,13.33
2019-02-07T07:37:39.167Z,11.70
2019-02-07T07:40:14.973Z,10.97
2019-02-07T07:43:00.415Z,11.17
2019-02-07T07:45:39.420Z,12.83
2019-02-07T07:48:09.552Z,12.83
2019-02-07T07:50:39.647Z,12.93
2019-02-07T07:53:15.391Z,9.53
2019-02-07T07:55:45.487Z,11.77
2019-02-07T07:58:18.280Z,13.00
2019-02-07T08:01:00.652Z,11.27
2019-02-07T08:03:46.959Z,12.20
2019-02-07T08:06:17.057Z,11.03
2019-02-07T08:08:47.116Z,10.20
2019-02-07T08:11:33.098Z,10.40
2019-02-07T08:14:03.171Z,10.63
2019-02-07T08:16:49.370Z,11.80
2019-02-07T08:19:19.542Z,10.80
2019-02-07T08:21:49.581Z,9.80
2019-02-07T08:24:31.605Z,12.00
2019-02-07T08:27:18.140Z,10.53
2019-02-07T08:29:57.283Z,11.60
2019-02-07T08:32:39.624Z,14.47
2019-02-07T08:35:22.405Z,10.53
2019-02-07T08:38:00.951Z,10.60
2019-02-07T08:40:33.991Z,11.63
2019-02-07T08:43:22.381Z,13.33
2019-02-07T08:46:10.913Z,12.60
2019-02-07T08:48:55.828Z,10.10
2019-02-07T08:51:37.856Z,12.13
2019-02-07T08:54:17.540Z,12.93
2019-02-07T08:56:56.694Z,13.70
2019-02-07T08:59:29.737Z,14.17
2019-02-07T09:02:06.052Z,13.43
2019-02-07T09:04:52.501Z,13.23
2019-02-07T09:07:22.552Z,11.47
2019-02-07T09:10:01.130Z,11.63
2019-02-07T09:12:33.915Z,12.87
2019-02-07T09:15:09.817Z,14.13
2019-02-07T09:17:45.657Z,11.40
2019-02-07T09:20:18.628Z,9.90
2019-02-07T09:22:54.739Z,12.20
2019-02-07T09:25:24.785Z,11.20
2019-02-07T09:28:11.302Z,12.43
2019-02-07T09:30:47.214Z,11.93
2019-02-07T09:33:31.958Z,10.77
2019-02-07T09:36:20.203Z,14.60
2019-02-07T09:38:50.552Z,10.37
2019-02-07T09:41:20.600Z,8.90
2019-02-07T09:43:59.716Z,9.63
2019-02-07T09:46:29.784Z,12.03
2019-02-07T09:49:16.053Z,11.23
2019-02-07T09:51:46.191Z,12.23
2019-02-07T09:54:34.362Z,10.27
2019-02-07T09:57:04.457Z,10.53
2019-02-07T09:59:34.516Z,11.23
2019-02-07T10:02:07.601Z,10.07
2019-02-07T10:04:40.782Z,10.03
2019-02-07T10:07:10.846Z,9.40
2019-02-07T10:09:40.977Z,12.10
2019-02-07T10:12:27.142Z,10.23
2019-02-07T10:14:59.646Z,11.73
2019-02-07T10:17:29.736Z,12.27
2019-02-07T10:20:15.936Z,10.03
2019-02-07T10:23:03.876Z,10.53
2019-02-07T10:25:51.435Z,12.53
2019-02-07T10:28:40.006Z,11.63
2019-02-07T10:31:13.455Z,11.03
2019-02-07T10:33:59.672Z,12.57
2019-02-07T10:36:38.524Z,10.87
2019-02-07T10:39:11.095Z,8.90
2019-02-07T10:41:56.190Z,9.97
2019-02-07T10:44:32.142Z,10.30
2019-02-07T10:47:07.674Z,9.77
2019-02-07T10:49:40.423Z,9.37
2019-02-07T10:52:22.456Z,10.67
2019-02-07T10:55:08.884Z,12.80
2019-02-07T10:57:50.874Z,11.37
2019-02-07T11:00:25.624Z,10.33
2019-02-07T11:03:07.778Z,9.17
2019-02-07T11:05:43.870Z,12.57
2019-02-07T11:08:22.897Z,9.38
2019-02-07T11:10:55.997Z,9.77
2019-02-07T11:13:42.309Z,12.10
2019-02-07T11:16:21.162Z,8.28
2019-02-07T11:19:03.221Z,8.20
2019-02-07T11:21:49.364Z,11.30
2019-02-07T11:24:37.593Z,9.30
2019-02-07T11:27:13.552Z,8.10
2019-02-07T11:29:46.343Z,10.07
2019-02-07T11:32:28.128Z,9.57
2019-02-07T11:34:58.193Z,9.27
2019-02-07T11:37:37.230Z,8.37
2019-02-07T11:40:26.336Z,11.77
2019-02-07T11:43:12.775Z,11.37
2019-02-07T11:45:48.296Z,9.60
2019-02-07T11:48:33.630Z,9.17
2019-02-07T11:51:13.832Z,8.43
2019-02-07T11:53:56.142Z,7.93
2019-02-07T11:56:40.748Z,8.23
2019-02-07T11:59:10.952Z,8.07
2019-02-07T12:01:40.982Z,7.93
2019-02-07T12:04:13.000Z,7.20
2019-02-07T12:06:43.091Z,10.30
2019-02-07T12:09:15.986Z,11.83
2019-02-07T12:11:48.776Z,7.60
2019-02-07T12:14:18.844Z,7.80
2019-02-07T12:16:48.962Z,7.20
2019-02-07T12:19:37.087Z,8.17
2019-02-07T12:22:07.566Z,6.67
2019-02-07T12:24:54.163Z,7.43
2019-02-07T12:27:27.406Z,6.63
2019-02-07T12:30:03.238Z,6.60
2019-02-07T12:32:36.232Z,6.77
2019-02-07T12:35:25.687Z,7.47
2019-02-07T12:38:11.997Z,7.83
2019-02-07T12:40:51.393Z,6.83
2019-02-07T12:43:33.570Z,9.00
2019-02-07T12:46:18.640Z,7.43
2019-02-07T12:48:48.703Z,8.03
2019-02-07T12:51:18.823Z,12.63
2019-02-07T12:53:49.186Z,14.45
2019-02-07T12:56:26.979Z,10.90
2019-02-07T12:58:57.033Z,10.17
2019-02-07T13:01:30.027Z,12.90
2019-02-07T13:04:00.076Z,8.73
2019-02-07T13:06:33.044Z,12.97
2019-02-07T13:09:03.103Z,13.22
2019-02-07T13:11:38.643Z,10.23
2019-02-07T13:14:14.888Z,9.53
2019-02-07T13:17:01.471Z,9.50
2019-02-07T13:19:40.542Z,10.70
2019-02-07T13:22:10.036Z,8.60
2019-02-07T13:24:48.923Z,9.83
2019-02-07T13:27:24.883Z,9.18
2019-02-07T13:29:57.698Z,10.72
2019-02-07T13:32:33.737Z,18.00
2019-02-07T13:35:22.240Z,17.30
2019-02-07T13:38:04.279Z,15.40
2019-02-07T13:40:40.639Z,10.60
2019-02-07T13:43:13.643Z,7.87
2019-02-07T13:45:49.928Z,11.23
2019-02-07T13:48:28.864Z,9.33
2019-02-07T13:51:15.374Z,11.40
2019-02-07T13:53:59.421Z,9.73
2019-02-07T13:56:38.165Z,13.70
2019-02-07T13:59:14.767Z,13.00
2019-02-07T14:01:50.480Z,13.03
2019-02-07T14:04:23.634Z,10.67
2019-02-07T14:07:10.225Z,9.87
2019-02-07T14:09:40.328Z,6.20
2019-02-07T14:12:11.258Z,17.90
2019-02-07T14:14:57.784Z,9.07
2019-02-07T14:17:36.686Z,9.87
2019-02-07T14:20:10.022Z,9.83
2019-02-07T14:22:56.515Z,10.03
2019-02-07T14:25:29.379Z,8.30
2019-02-07T14:28:14.327Z,7.13
2019-02-07T14:30:46.866Z,8.70
2019-02-07T14:33:16.939Z,7.60
2019-02-07T14:35:56.038Z,7.33
2019-02-07T14:38:44.681Z,6.83
2019-02-07T14:41:17.211Z,6.57
2019-02-07T14:43:47.530Z,6.20
2019-02-07T14:46:20.082Z,6.27
2019-02-07T14:48:48.534Z,6.53
2019-02-07T14:51:16.999Z,6.40
2019-02-07T14:53:45.438Z,6.43
2019-02-07T14:56:13.957Z,8.70
2019-02-07T14:58:42.360Z,8.10
2019-02-07T15:01:11.080Z,6.50
2019-02-07T15:03:39.494Z,7.03
2019-02-07T15:06:07.986Z,6.55
2019-02-07T15:08:36.422Z,5.80
2019-02-07T15:11:05.578Z,6.47
2019-02-07T15:13:34.016Z,6.37
2019-02-07T15:16:02.813Z,8.00
2019-02-07T15:18:31.257Z,6.47
2019-02-07T15:20:59.674Z,8.73
2019-02-07T15:23:28.090Z,8.57
2019-02-07T15:25:56.531Z,6.97
2019-02-07T15:28:24.980Z,9.77
2019-02-07T15:30:53.395Z,10.20
2019-02-07T15:33:22.085Z,6.40
2019-02-07T15:35:50.586Z,7.70
2019-02-07T15:38:19.057Z,7.13
2019-02-07T15:40:47.841Z,10.93
2019-02-07T15:43:16.896Z,6.93
2019-02-07T15:45:45.478Z,7.97
2019-02-07T15:48:13.961Z,6.90
2019-02-07T15:50:42.459Z,9.10
2019-02-07T15:53:11.738Z,10.80
2019-02-07T15:55:40.165Z,8.07
2019-02-07T15:58:08.574Z,5.47
2019-02-07T16:00:44.530Z,6.80
2019-02-07T16:03:14.867Z,8.20
2019-02-07T16:05:43.385Z,6.30
2019-02-07T16:08:11.792Z,7.57
2019-02-07T16:10:40.232Z,8.47
2019-02-07T16:13:08.657Z,6.30
2019-02-07T16:15:37.250Z,6.87
2019-02-07T16:18:06.128Z,7.70
2019-02-07T16:20:34.545Z,9.63
2019-02-07T16:23:03.242Z,7.00
2019-02-07T16:25:31.723Z,6.80
2019-02-07T16:28:00.158Z,8.20
2019-02-07T16:30:30.624Z,8.93
2019-02-07T16:32:59.066Z,7.43
2019-02-07T16:35:27.470Z,8.60
2019-02-07T16:37:56.146Z,8.07
2019-02-07T16:40:24.912Z,7.60
2019-02-07T16:42:53.417Z,6.03
2019-02-07T16:45:23.569Z,7.03
2019-02-07T16:47:52.011Z,7.20
2019-02-07T16:50:29.608Z,7.10
2019-02-07T16:52:58.051Z,6.50
2019-02-07T16:55:26.555Z,9.77
2019-02-07T16:57:55.000Z,5.50
2019-02-07T17:00:32.470Z,5.60
2019-02-07T17:03:00.955Z,7.23
2019-02-07T17:05:29.431Z,7.50
2019-02-07T17:07:57.846Z,6.77
2019-02-07T17:10:37.696Z,5.63
2019-02-07T17:13:08.946Z,6.90
2019-02-07T17:15:37.801Z,6.23
2019-02-07T17:18:06.268Z,5.93
2019-02-07T17:20:35.046Z,10.27
2019-02-07T17:23:04.232Z,7.10
2019-02-07T17:25:32.998Z,6.47
2019-02-07T17:28:01.400Z,6.77
2019-02-07T17:30:30.443Z,7.40
2019-02-07T17:32:59.060Z,6.57
2019-02-07T17:35:27.590Z,8.10
2019-02-07T17:37:56.185Z,5.67
2019-02-07T17:40:28.318Z,6.00
2019-02-07T17:42:56.828Z,6.50
2019-02-07T17:45:32.455Z,5.90
2019-02-07T17:48:00.890Z,6.10
2019-02-07T17:50:36.456Z,5.13
2019-02-07T17:53:07.960Z,7.27
2019-02-07T17:55:36.622Z,6.77
2019-02-07T17:58:06.376Z,5.30
2019-02-07T18:00:55.619Z,6.13
2019-02-07T18:03:24.173Z,7.00
2019-02-07T18:05:52.675Z,6.07
2019-02-07T18:08:21.551Z,8.23
2019-02-07T18:10:50.853Z,5.17
2019-02-07T18:13:19.542Z,5.30
2019-02-07T18:15:47.950Z,4.00
2019-02-07T18:18:16.781Z,5.73
2019-02-07T18:20:45.223Z,5.90
2019-02-07T18:23:13.832Z,4.93
2019-02-07T18:25:42.237Z,5.23
2019-02-07T18:28:10.747Z,5.80
2019-02-07T18:30:39.176Z,5.50
2019-02-07T18:33:07.727Z,6.53
2019-02-07T18:35:36.243Z,6.17
2019-02-07T18:38:04.828Z,6.17
2019-02-07T18:40:33.332Z,5.57
2019-02-07T18:43:02.212Z,7.37
2019-02-07T18:45:30.802Z,6.13
2019-02-07T18:47:59.229Z,5.33
2019-02-07T18:50:38.124Z,4.83
2019-02-07T18:53:07.061Z,5.13
2019-02-07T18:55:35.520Z,5.93
2019-02-07T18:58:04.932Z,4.70
2019-02-07T19:00:36.288Z,5.57
2019-02-07T19:03:06.406Z,6.40
2019-02-07T19:05:34.887Z,4.80
2019-02-07T19:08:03.554Z,4.73
2019-02-07T19:10:32.130Z,4.83
2019-02-07T19:13:00.911Z,5.53
2019-02-07T19:15:32.893Z,5.70
2019-02-07T19:18:01.312Z,7.13
2019-02-07T19:20:29.867Z,6.03
2019-02-07T19:22:58.450Z,5.93
2019-02-07T19:25:26.960Z,6.03
2019-02-07T19:27:55.768Z,6.20
2019-02-07T19:30:30.210Z,5.37
2019-02-07T19:32:58.867Z,6.37
2019-02-07T19:35:27.463Z,6.03
2019-02-07T19:37:55.970Z,4.90
2019-02-07T19:40:24.705Z,8.00
